sensor_id;sensor_type;location;lat;lon;timestamp;P1;durP1;ratioP1;P2;durP2;ratioP2
64791;SDS011;51226;47.504;19.074;2023-07-13T00:01:28;13.57;;;5.20;;
64791;SDS011;51226;47.504;19.074;2023-07-13T00:04:31;9.75;;;5.40;;
64791;SDS011;51226;47.504;19.074;2023-07-13T00:07:35;8.50;;;4.70;;
64791;SDS011;51226;47.504;19.074;2023-07-13T00:10:39;8.20;;;4.87;;
64791;SDS011;51226;47.504;19.074;2023-07-13T00:13:43;9.57;;;5.30;;
64791;SDS011;51226;47.504;19.074;2023-07-13T00:16:47;11.80;;;4.50;;
64791;SDS011;51226;47.504;19.074;2023-07-13T00:19:50;4.85;;;3.67;;
64791;SDS011;51226;47.504;19.074;2023-07-13T00:22:53;7.18;;;4.00;;
64791;SDS011;51226;47.504;19.074;2023-07-13T00:25:56;6.20;;;4.03;;
64791;SDS011;51226;47.504;19.074;2023-07-13T00:29:00;5.30;;;3.80;;
64791;SDS011;51226;47.504;19.074;2023-07-13T00:32:04;5.22;;;3.33;;
64791;SDS011;51226;47.504;19.074;2023-07-13T00:35:09;4.37;;;3.37;;
64791;SDS011;51226;47.504;19.074;2023-07-13T00:38:11;4.22;;;3.55;;
64791;SDS011;51226;47.504;19.074;2023-07-13T00:41:15;5.05;;;3.03;;
64791;SDS011;51226;47.504;19.074;2023-07-13T00:44:18;4.20;;;2.97;;
64791;SDS011;51226;47.504;19.074;2023-07-13T00:47:23;5.85;;;3.55;;
64791;SDS011;51226;47.504;19.074;2023-07-13T00:50:26;5.87;;;3.37;;
64791;SDS011;51226;47.504;19.074;2023-07-13T00:53:29;6.62;;;3.33;;
64791;SDS011;51226;47.504;19.074;2023-07-13T00:56:34;4.60;;;3.15;;
64791;SDS011;51226;47.504;19.074;2023-07-13T00:59:39;5.87;;;2.90;;
64791;SDS011;51226;47.504;19.074;2023-07-13T01:02:45;5.68;;;3.10;;
64791;SDS011;51226;47.504;19.074;2023-07-13T01:05:52;3.58;;;3.08;;
64791;SDS011;51226;47.504;19.074;2023-07-13T01:08:56;3.87;;;3.10;;
64791;SDS011;51226;47.504;19.074;2023-07-13T01:12:02;6.90;;;3.45;;
64791;SDS011;51226;47.504;19.074;2023-07-13T01:15:32;4.07;;;3.40;;
64791;SDS011;51226;47.504;19.074;2023-07-13T01:18:45;3.22;;;2.95;;
64791;SDS011;51226;47.504;19.074;2023-07-13T01:21:52;4.05;;;3.45;;
64791;SDS011;51226;47.504;19.074;2023-07-13T01:24:56;4.10;;;3.00;;
64791;SDS011;51226;47.504;19.074;2023-07-13T01:27:58;4.57;;;3.47;;
64791;SDS011;51226;47.504;19.074;2023-07-13T01:31:02;6.62;;;3.40;;
64791;SDS011;51226;47.504;19.074;2023-07-13T01:34:04;4.07;;;3.28;;
64791;SDS011;51226;47.504;19.074;2023-07-13T01:37:09;6.03;;;3.62;;
64791;SDS011;51226;47.504;19.074;2023-07-13T01:40:12;5.45;;;3.50;;
64791;SDS011;51226;47.504;19.074;2023-07-13T01:43:15;4.28;;;3.28;;
64791;SDS011;51226;47.504;19.074;2023-07-13T01:46:19;7.72;;;3.25;;
64791;SDS011;51226;47.504;19.074;2023-07-13T01:49:25;7.20;;;3.58;;
64791;SDS011;51226;47.504;19.074;2023-07-13T01:52:28;6.05;;;3.47;;
64791;SDS011;51226;47.504;19.074;2023-07-13T01:55:33;6.00;;;3.60;;
64791;SDS011;51226;47.504;19.074;2023-07-13T01:58:37;3.67;;;2.92;;
64791;SDS011;51226;47.504;19.074;2023-07-13T02:01:40;6.68;;;3.30;;
64791;SDS011;51226;47.504;19.074;2023-07-13T02:04:43;3.95;;;3.33;;
64791;SDS011;51226;47.504;19.074;2023-07-13T02:07:46;4.20;;;3.42;;
64791;SDS011;51226;47.504;19.074;2023-07-13T02:10:49;7.40;;;3.62;;
64791;SDS011;51226;47.504;19.074;2023-07-13T02:13:52;3.80;;;3.05;;
64791;SDS011;51226;47.504;19.074;2023-07-13T02:16:55;6.22;;;3.22;;
64791;SDS011;51226;47.504;19.074;2023-07-13T02:19:58;4.25;;;3.08;;
64791;SDS011;51226;47.504;19.074;2023-07-13T02:23:01;5.82;;;3.45;;
64791;SDS011;51226;47.504;19.074;2023-07-13T02:26:04;4.65;;;3.37;;
64791;SDS011;51226;47.504;19.074;2023-07-13T02:29:07;3.90;;;3.28;;
64791;SDS011;51226;47.504;19.074;2023-07-13T02:32:10;5.40;;;3.40;;
64791;SDS011;51226;47.504;19.074;2023-07-13T02:35:13;5.25;;;3.60;;
64791;SDS011;51226;47.504;19.074;2023-07-13T02:38:16;5.15;;;3.30;;
64791;SDS011;51226;47.504;19.074;2023-07-13T02:41:18;5.10;;;2.75;;
64791;SDS011;51226;47.504;19.074;2023-07-13T02:44:21;3.33;;;3.03;;
64791;SDS011;51226;47.504;19.074;2023-07-13T02:47:24;4.90;;;2.95;;
64791;SDS011;51226;47.504;19.074;2023-07-13T02:50:27;4.28;;;3.00;;
64791;SDS011;51226;47.504;19.074;2023-07-13T02:53:30;9.10;;;8.20;;
64791;SDS011;51226;47.504;19.074;2023-07-13T02:56:33;9.43;;;6.07;;
64791;SDS011;51226;47.504;19.074;2023-07-13T02:59:36;7.70;;;4.45;;
64791;SDS011;51226;47.504;19.074;2023-07-13T03:02:39;5.93;;;4.25;;
64791;SDS011;51226;47.504;19.074;2023-07-13T03:05:43;6.37;;;3.70;;
64791;SDS011;51226;47.504;19.074;2023-07-13T03:08:48;5.78;;;3.85;;
64791;SDS011;51226;47.504;19.074;2023-07-13T03:11:54;6.40;;;4.20;;
64791;SDS011;51226;47.504;19.074;2023-07-13T03:14:58;6.18;;;4.03;;
64791;SDS011;51226;47.504;19.074;2023-07-13T03:18:02;5.78;;;3.97;;
64791;SDS011;51226;47.504;19.074;2023-07-13T03:21:05;4.90;;;3.15;;
64791;SDS011;51226;47.504;19.074;2023-07-13T03:24:08;6.10;;;3.60;;
64791;SDS011;51226;47.504;19.074;2023-07-13T03:27:11;6.85;;;4.22;;
64791;SDS011;51226;47.504;19.074;2023-07-13T03:30:16;11.18;;;8.60;;
64791;SDS011;51226;47.504;19.074;2023-07-13T03:33:19;16.62;;;12.02;;
64791;SDS011;51226;47.504;19.074;2023-07-13T03:36:23;8.70;;;5.03;;
64791;SDS011;51226;47.504;19.074;2023-07-13T03:39:29;6.30;;;4.32;;
64791;SDS011;51226;47.504;19.074;2023-07-13T03:42:32;7.05;;;4.43;;
64791;SDS011;51226;47.504;19.074;2023-07-13T03:45:37;6.00;;;3.78;;
64791;SDS011;51226;47.504;19.074;2023-07-13T03:48:41;5.35;;;3.80;;
64791;SDS011;51226;47.504;19.074;2023-07-13T03:51:47;5.95;;;4.20;;
64791;SDS011;51226;47.504;19.074;2023-07-13T03:54:52;9.25;;;4.30;;
64791;SDS011;51226;47.504;19.074;2023-07-13T03:58:00;5.32;;;3.85;;
64791;SDS011;51226;47.504;19.074;2023-07-13T04:01:24;6.97;;;3.92;;
64791;SDS011;51226;47.504;19.074;2023-07-13T04:04:27;6.22;;;3.65;;
64791;SDS011;51226;47.504;19.074;2023-07-13T04:07:30;4.43;;;3.97;;
64791;SDS011;51226;47.504;19.074;2023-07-13T04:10:35;5.32;;;3.40;;
64791;SDS011;51226;47.504;19.074;2023-07-13T04:16:40;5.55;;;3.42;;
64791;SDS011;51226;47.504;19.074;2023-07-13T04:19:43;4.47;;;3.22;;
64791;SDS011;51226;47.504;19.074;2023-07-13T04:22:46;5.53;;;4.00;;
64791;SDS011;51226;47.504;19.074;2023-07-13T04:25:49;7.28;;;3.65;;
64791;SDS011;51226;47.504;19.074;2023-07-13T04:28:58;6.15;;;3.50;;
64791;SDS011;51226;47.504;19.074;2023-07-13T04:35:04;4.53;;;3.10;;
64791;SDS011;51226;47.504;19.074;2023-07-13T04:38:07;5.55;;;3.05;;
64791;SDS011;51226;47.504;19.074;2023-07-13T04:41:10;3.80;;;3.25;;
64791;SDS011;51226;47.504;19.074;2023-07-13T04:44:12;5.03;;;3.20;;
64791;SDS011;51226;47.504;19.074;2023-07-13T04:47:16;4.50;;;3.20;;
64791;SDS011;51226;47.504;19.074;2023-07-13T04:50:19;3.55;;;2.72;;
64791;SDS011;51226;47.504;19.074;2023-07-13T04:53:26;4.97;;;3.17;;
64791;SDS011;51226;47.504;19.074;2023-07-13T04:56:30;4.85;;;3.12;;
64791;SDS011;51226;47.504;19.074;2023-07-13T04:59:33;7.37;;;3.47;;
64791;SDS011;51226;47.504;19.074;2023-07-13T05:02:37;5.60;;;3.40;;
64791;SDS011;51226;47.504;19.074;2023-07-13T05:05:41;5.55;;;3.87;;
64791;SDS011;51226;47.504;19.074;2023-07-13T05:14:49;7.12;;;3.60;;
64791;SDS011;51226;47.504;19.074;2023-07-13T05:17:52;5.53;;;3.62;;
64791;SDS011;51226;47.504;19.074;2023-07-13T05:21:02;9.50;;;3.83;;
64791;SDS011;51226;47.504;19.074;2023-07-13T05:24:07;5.80;;;3.63;;
64791;SDS011;51226;47.504;19.074;2023-07-13T05:27:24;7.43;;;3.45;;
64791;SDS011;51226;47.504;19.074;2023-07-13T05:30:28;5.80;;;3.35;;
64791;SDS011;51226;47.504;19.074;2023-07-13T05:36:33;5.37;;;2.87;;
64791;SDS011;51226;47.504;19.074;2023-07-13T05:39:36;4.28;;;2.85;;
64791;SDS011;51226;47.504;19.074;2023-07-13T05:42:39;4.87;;;2.78;;
64791;SDS011;51226;47.504;19.074;2023-07-13T05:45:42;4.62;;;2.53;;
64791;SDS011;51226;47.504;19.074;2023-07-13T05:48:45;3.12;;;2.30;;
64791;SDS011;51226;47.504;19.074;2023-07-13T05:54:51;4.07;;;2.05;;
64791;SDS011;51226;47.504;19.074;2023-07-13T05:57:53;4.15;;;1.87;;
64791;SDS011;51226;47.504;19.074;2023-07-13T06:01:15;2.80;;;1.90;;
64791;SDS011;51226;47.504;19.074;2023-07-13T06:04:19;3.55;;;2.15;;
64791;SDS011;51226;47.504;19.074;2023-07-13T06:07:22;2.40;;;1.70;;
64791;SDS011;51226;47.504;19.074;2023-07-13T06:10:25;3.10;;;1.75;;
64791;SDS011;51226;47.504;19.074;2023-07-13T06:13:28;3.17;;;1.90;;
64791;SDS011;51226;47.504;19.074;2023-07-13T06:16:31;3.50;;;1.90;;
64791;SDS011;51226;47.504;19.074;2023-07-13T06:19:34;5.20;;;2.17;;
64791;SDS011;51226;47.504;19.074;2023-07-13T06:22:37;5.57;;;2.95;;
64791;SDS011;51226;47.504;19.074;2023-07-13T06:25:40;3.47;;;2.53;;
64791;SDS011;51226;47.504;19.074;2023-07-13T06:28:43;4.65;;;2.62;;
64791;SDS011;51226;47.504;19.074;2023-07-13T06:31:46;3.22;;;2.53;;
64791;SDS011;51226;47.504;19.074;2023-07-13T06:34:49;2.70;;;2.15;;
64791;SDS011;51226;47.504;19.074;2023-07-13T06:37:54;4.60;;;2.83;;
64791;SDS011;51226;47.504;19.074;2023-07-13T06:40:57;2.58;;;2.10;;
64791;SDS011;51226;47.504;19.074;2023-07-13T06:47:03;4.20;;;1.90;;
64791;SDS011;51226;47.504;19.074;2023-07-13T06:50:06;3.47;;;1.87;;
64791;SDS011;51226;47.504;19.074;2023-07-13T06:53:10;3.03;;;2.08;;
64791;SDS011;51226;47.504;19.074;2023-07-13T06:56:14;2.40;;;2.20;;
64791;SDS011;51226;47.504;19.074;2023-07-13T06:59:16;3.83;;;2.08;;
64791;SDS011;51226;47.504;19.074;2023-07-13T07:02:19;4.60;;;2.30;;
64791;SDS011;51226;47.504;19.074;2023-07-13T07:05:22;2.08;;;1.95;;
64791;SDS011;51226;47.504;19.074;2023-07-13T07:08:26;3.53;;;2.20;;
64791;SDS011;51226;47.504;19.074;2023-07-13T07:11:28;2.92;;;2.10;;
64791;SDS011;51226;47.504;19.074;2023-07-13T07:14:31;2.10;;;1.90;;
64791;SDS011;51226;47.504;19.074;2023-07-13T07:17:36;2.28;;;1.92;;
64791;SDS011;51226;47.504;19.074;2023-07-13T07:20:39;3.33;;;2.00;;
64791;SDS011;51226;47.504;19.074;2023-07-13T07:23:43;2.47;;;2.03;;
64791;SDS011;51226;47.504;19.074;2023-07-13T07:26:46;3.70;;;1.98;;
64791;SDS011;51226;47.504;19.074;2023-07-13T07:29:52;1.83;;;1.70;;
64791;SDS011;51226;47.504;19.074;2023-07-13T07:33:15;4.07;;;2.20;;
64791;SDS011;51226;47.504;19.074;2023-07-13T07:36:18;3.42;;;2.15;;
64791;SDS011;51226;47.504;19.074;2023-07-13T07:39:24;2.62;;;2.10;;
64791;SDS011;51226;47.504;19.074;2023-07-13T07:42:27;2.80;;;2.28;;
64791;SDS011;51226;47.504;19.074;2023-07-13T07:45:30;4.45;;;2.40;;
64791;SDS011;51226;47.504;19.074;2023-07-13T07:48:33;3.20;;;2.40;;
64791;SDS011;51226;47.504;19.074;2023-07-13T07:51:36;2.83;;;2.10;;
64791;SDS011;51226;47.504;19.074;2023-07-13T07:54:39;2.12;;;1.92;;
64791;SDS011;51226;47.504;19.074;2023-07-13T07:57:45;2.37;;;2.17;;
64791;SDS011;51226;47.504;19.074;2023-07-13T08:00:51;4.07;;;1.80;;
64791;SDS011;51226;47.504;19.074;2023-07-13T08:03:57;2.30;;;2.10;;
64791;SDS011;51226;47.504;19.074;2023-07-13T08:07:02;3.33;;;2.00;;
64791;SDS011;51226;47.504;19.074;2023-07-13T08:10:06;4.45;;;2.92;;
64791;SDS011;51226;47.504;19.074;2023-07-13T08:13:10;3.08;;;2.70;;
64791;SDS011;51226;47.504;19.074;2023-07-13T08:16:14;2.17;;;1.95;;
64791;SDS011;51226;47.504;19.074;2023-07-13T08:19:16;2.50;;;2.30;;
64791;SDS011;51226;47.504;19.074;2023-07-13T08:22:20;3.83;;;2.00;;
64791;SDS011;51226;47.504;19.074;2023-07-13T08:25:22;2.92;;;2.22;;
64791;SDS011;51226;47.504;19.074;2023-07-13T08:28:25;4.25;;;2.70;;
64791;SDS011;51226;47.504;19.074;2023-07-13T08:31:28;3.78;;;2.15;;
64791;SDS011;51226;47.504;19.074;2023-07-13T08:34:31;4.68;;;2.58;;
64791;SDS011;51226;47.504;19.074;2023-07-13T08:37:34;3.42;;;2.08;;
64791;SDS011;51226;47.504;19.074;2023-07-13T08:40:37;2.62;;;2.42;;
64791;SDS011;51226;47.504;19.074;2023-07-13T08:43:42;2.78;;;2.47;;
64791;SDS011;51226;47.504;19.074;2023-07-13T08:46:51;2.87;;;2.53;;
64791;SDS011;51226;47.504;19.074;2023-07-13T08:49:57;2.70;;;2.00;;
64791;SDS011;51226;47.504;19.074;2023-07-13T08:53:01;4.05;;;2.65;;
64791;SDS011;51226;47.504;19.074;2023-07-13T08:56:09;3.78;;;2.85;;
64791;SDS011;51226;47.504;19.074;2023-07-13T08:59:20;2.78;;;2.25;;
64791;SDS011;51226;47.504;19.074;2023-07-13T09:05:41;3.80;;;2.12;;
64791;SDS011;51226;47.504;19.074;2023-07-13T09:12:09;4.43;;;2.90;;
64791;SDS011;51226;47.504;19.074;2023-07-13T09:18:56;2.75;;;2.55;;
64791;SDS011;51226;47.504;19.074;2023-07-13T09:22:05;5.68;;;3.60;;
64791;SDS011;51226;47.504;19.074;2023-07-13T09:25:32;3.67;;;2.45;;
64791;SDS011;51226;47.504;19.074;2023-07-13T09:28:38;3.87;;;2.70;;
64791;SDS011;51226;47.504;19.074;2023-07-13T09:31:46;4.47;;;2.50;;
64791;SDS011;51226;47.504;19.074;2023-07-13T09:34:55;4.47;;;2.60;;
64791;SDS011;51226;47.504;19.074;2023-07-13T09:38:02;4.12;;;2.92;;
64791;SDS011;51226;47.504;19.074;2023-07-13T09:44:36;5.28;;;3.95;;
64791;SDS011;51226;47.504;19.074;2023-07-13T09:47:40;4.28;;;3.25;;
64791;SDS011;51226;47.504;19.074;2023-07-13T09:50:44;3.22;;;2.80;;
64791;SDS011;51226;47.504;19.074;2023-07-13T09:53:48;3.28;;;2.95;;
64791;SDS011;51226;47.504;19.074;2023-07-13T09:56:56;4.87;;;2.70;;
64791;SDS011;51226;47.504;19.074;2023-07-13T10:00:02;3.17;;;2.87;;
64791;SDS011;51226;47.504;19.074;2023-07-13T10:03:16;5.65;;;3.62;;
64791;SDS011;51226;47.504;19.074;2023-07-13T10:06:21;4.35;;;2.83;;
64791;SDS011;51226;47.504;19.074;2023-07-13T10:09:24;5.75;;;2.85;;
64791;SDS011;51226;47.504;19.074;2023-07-13T10:12:28;3.53;;;2.90;;
64791;SDS011;51226;47.504;19.074;2023-07-13T10:15:32;3.30;;;3.00;;
64791;SDS011;51226;47.504;19.074;2023-07-13T10:18:41;3.30;;;3.00;;
64791;SDS011;51226;47.504;19.074;2023-07-13T10:25:27;3.17;;;2.85;;
64791;SDS011;51226;47.504;19.074;2023-07-13T10:28:37;2.20;;;2.03;;
64791;SDS011;51226;47.504;19.074;2023-07-13T10:31:41;3.62;;;2.62;;
64791;SDS011;51226;47.504;19.074;2023-07-13T10:34:45;3.28;;;2.97;;
64791;SDS011;51226;47.504;19.074;2023-07-13T10:37:52;3.00;;;2.60;;
64791;SDS011;51226;47.504;19.074;2023-07-13T10:41:01;3.87;;;3.50;;
64791;SDS011;51226;47.504;19.074;2023-07-13T10:44:12;2.92;;;2.60;;
64791;SDS011;51226;47.504;19.074;2023-07-13T10:47:23;2.62;;;2.40;;
64791;SDS011;51226;47.504;19.074;2023-07-13T10:50:28;3.83;;;2.30;;
64791;SDS011;51226;47.504;19.074;2023-07-13T10:53:36;3.78;;;2.70;;
64791;SDS011;51226;47.504;19.074;2023-07-13T10:56:39;2.95;;;2.25;;
64791;SDS011;51226;47.504;19.074;2023-07-13T10:59:47;2.60;;;2.40;;
64791;SDS011;51226;47.504;19.074;2023-07-13T11:02:58;3.10;;;2.53;;
64791;SDS011;51226;47.504;19.074;2023-07-13T11:09:36;4.53;;;2.40;;
64791;SDS011;51226;47.504;19.074;2023-07-13T11:15:49;4.40;;;2.17;;
64791;SDS011;51226;47.504;19.074;2023-07-13T11:18:53;2.92;;;2.58;;
64791;SDS011;51226;47.504;19.074;2023-07-13T11:22:41;2.70;;;2.45;;
64791;SDS011;51226;47.504;19.074;2023-07-13T11:25:45;2.03;;;1.92;;
64791;SDS011;51226;47.504;19.074;2023-07-13T11:28:49;2.40;;;1.70;;
64791;SDS011;51226;47.504;19.074;2023-07-13T11:31:54;2.72;;;2.17;;
64791;SDS011;51226;47.504;19.074;2023-07-13T11:34:58;4.20;;;2.03;;
64791;SDS011;51226;47.504;19.074;2023-07-13T11:38:02;4.10;;;2.30;;
64791;SDS011;51226;47.504;19.074;2023-07-13T11:41:27;2.42;;;2.15;;
64791;SDS011;51226;47.504;19.074;2023-07-13T11:44:34;3.37;;;2.17;;
64791;SDS011;51226;47.504;19.074;2023-07-13T11:47:39;1.98;;;1.87;;
64791;SDS011;51226;47.504;19.074;2023-07-13T11:50:43;2.67;;;2.30;;
64791;SDS011;51226;47.504;19.074;2023-07-13T11:53:54;2.83;;;2.62;;
64791;SDS011;51226;47.504;19.074;2023-07-13T11:57:06;5.55;;;2.28;;
64791;SDS011;51226;47.504;19.074;2023-07-13T12:00:23;3.42;;;2.47;;
64791;SDS011;51226;47.504;19.074;2023-07-13T12:03:29;2.65;;;2.17;;
64791;SDS011;51226;47.504;19.074;2023-07-13T12:06:35;2.55;;;2.20;;
64791;SDS011;51226;47.504;19.074;2023-07-13T12:09:42;2.70;;;2.12;;
64791;SDS011;51226;47.504;19.074;2023-07-13T12:12:46;3.80;;;2.00;;
64791;SDS011;51226;47.504;19.074;2023-07-13T12:15:51;2.45;;;2.25;;
64791;SDS011;51226;47.504;19.074;2023-07-13T12:18:56;2.50;;;2.30;;
64791;SDS011;51226;47.504;19.074;2023-07-13T12:22:00;4.00;;;2.40;;
64791;SDS011;51226;47.504;19.074;2023-07-13T12:25:03;3.40;;;2.45;;
64791;SDS011;51226;47.504;19.074;2023-07-13T12:28:31;2.20;;;2.08;;
64791;SDS011;51226;47.504;19.074;2023-07-13T12:31:40;3.72;;;2.37;;
64791;SDS011;51226;47.504;19.074;2023-07-13T12:35:01;3.83;;;2.60;;
64791;SDS011;51226;47.504;19.074;2023-07-13T12:38:16;3.62;;;2.47;;
64791;SDS011;51226;47.504;19.074;2023-07-13T12:41:19;3.25;;;2.55;;
64791;SDS011;51226;47.504;19.074;2023-07-13T12:44:25;3.10;;;2.35;;
64791;SDS011;51226;47.504;19.074;2023-07-13T12:47:38;4.95;;;2.42;;
64791;SDS011;51226;47.504;19.074;2023-07-13T12:50:46;3.45;;;2.60;;
64791;SDS011;51226;47.504;19.074;2023-07-13T12:53:55;3.60;;;2.55;;
64791;SDS011;51226;47.504;19.074;2023-07-13T12:57:01;2.80;;;2.58;;
64791;SDS011;51226;47.504;19.074;2023-07-13T13:00:28;4.40;;;2.65;;
64791;SDS011;51226;47.504;19.074;2023-07-13T13:03:45;6.68;;;2.70;;
64791;SDS011;51226;47.504;19.074;2023-07-13T13:07:00;2.78;;;2.58;;
64791;SDS011;51226;47.504;19.074;2023-07-13T13:10:10;3.60;;;2.60;;
64791;SDS011;51226;47.504;19.074;2023-07-13T13:13:15;2.80;;;2.50;;
64791;SDS011;51226;47.504;19.074;2023-07-13T13:16:29;2.78;;;2.58;;
64791;SDS011;51226;47.504;19.074;2023-07-13T13:19:34;3.15;;;2.30;;
64791;SDS011;51226;47.504;19.074;2023-07-13T13:22:38;2.83;;;2.50;;
64791;SDS011;51226;47.504;19.074;2023-07-13T13:25:41;3.28;;;2.80;;
64791;SDS011;51226;47.504;19.074;2023-07-13T13:28:44;3.22;;;2.00;;
64791;SDS011;51226;47.504;19.074;2023-07-13T13:31:47;4.97;;;2.50;;
64791;SDS011;51226;47.504;19.074;2023-07-13T13:34:51;3.97;;;2.78;;
64791;SDS011;51226;47.504;19.074;2023-07-13T13:37:54;3.35;;;2.78;;
64791;SDS011;51226;47.504;19.074;2023-07-13T13:40:57;2.47;;;2.28;;
64791;SDS011;51226;47.504;19.074;2023-07-13T13:44:00;3.75;;;2.65;;
64791;SDS011;51226;47.504;19.074;2023-07-13T13:47:02;2.90;;;2.60;;
64791;SDS011;51226;47.504;19.074;2023-07-13T13:50:12;2.83;;;2.60;;
64791;SDS011;51226;47.504;19.074;2023-07-13T13:53:20;3.03;;;2.75;;
64791;SDS011;51226;47.504;19.074;2023-07-13T13:56:23;3.17;;;2.90;;
64791;SDS011;51226;47.504;19.074;2023-07-13T13:59:26;4.72;;;2.92;;
64791;SDS011;51226;47.504;19.074;2023-07-13T14:02:29;2.80;;;2.60;;
64791;SDS011;51226;47.504;19.074;2023-07-13T14:05:34;4.72;;;2.50;;
64791;SDS011;51226;47.504;19.074;2023-07-13T14:08:38;3.97;;;2.40;;
64791;SDS011;51226;47.504;19.074;2023-07-13T14:11:41;2.70;;;2.50;;
64791;SDS011;51226;47.504;19.074;2023-07-13T14:14:45;4.87;;;2.70;;
64791;SDS011;51226;47.504;19.074;2023-07-13T14:17:48;3.90;;;2.75;;
64791;SDS011;51226;47.504;19.074;2023-07-13T14:20:54;4.10;;;2.62;;
64791;SDS011;51226;47.504;19.074;2023-07-13T14:23:57;2.83;;;2.50;;
64791;SDS011;51226;47.504;19.074;2023-07-13T14:27:00;2.75;;;2.55;;
64791;SDS011;51226;47.504;19.074;2023-07-13T14:30:04;4.40;;;3.00;;
64791;SDS011;51226;47.504;19.074;2023-07-13T14:33:14;2.70;;;2.50;;
64791;SDS011;51226;47.504;19.074;2023-07-13T14:36:23;3.15;;;2.80;;
64791;SDS011;51226;47.504;19.074;2023-07-13T14:39:32;2.72;;;2.53;;
64791;SDS011;51226;47.504;19.074;2023-07-13T14:42:35;3.40;;;3.10;;
64791;SDS011;51226;47.504;19.074;2023-07-13T14:45:40;2.67;;;2.47;;
64791;SDS011;51226;47.504;19.074;2023-07-13T14:48:44;3.58;;;2.47;;
64791;SDS011;51226;47.504;19.074;2023-07-13T14:51:47;3.12;;;2.67;;
64791;SDS011;51226;47.504;19.074;2023-07-13T14:54:51;3.90;;;3.08;;
64791;SDS011;51226;47.504;19.074;2023-07-13T14:57:54;3.10;;;2.90;;
64791;SDS011;51226;47.504;19.074;2023-07-13T15:00:57;2.70;;;2.50;;
64791;SDS011;51226;47.504;19.074;2023-07-13T15:04:01;3.28;;;2.87;;
64791;SDS011;51226;47.504;19.074;2023-07-13T15:07:04;3.00;;;2.80;;
64791;SDS011;51226;47.504;19.074;2023-07-13T15:10:16;3.67;;;2.33;;
64791;SDS011;51226;47.504;19.074;2023-07-13T15:13:21;4.40;;;3.00;;
64791;SDS011;51226;47.504;19.074;2023-07-13T15:16:26;3.45;;;3.17;;
64791;SDS011;51226;47.504;19.074;2023-07-13T15:19:29;5.90;;;4.90;;
64791;SDS011;51226;47.504;19.074;2023-07-13T15:22:34;5.40;;;4.80;;
64791;SDS011;51226;47.504;19.074;2023-07-13T15:25:37;4.03;;;3.47;;
64791;SDS011;51226;47.504;19.074;2023-07-13T15:28:41;2.72;;;2.53;;
64791;SDS011;51226;47.504;19.074;2023-07-13T15:31:45;3.58;;;3.28;;
64791;SDS011;51226;47.504;19.074;2023-07-13T15:34:49;3.40;;;3.08;;
64791;SDS011;51226;47.504;19.074;2023-07-13T15:37:52;4.18;;;3.78;;
64791;SDS011;51226;47.504;19.074;2023-07-13T15:40:56;4.95;;;4.55;;
64791;SDS011;51226;47.504;19.074;2023-07-13T15:44:00;3.03;;;2.72;;
64791;SDS011;51226;47.504;19.074;2023-07-13T15:47:13;3.12;;;2.83;;
64791;SDS011;51226;47.504;19.074;2023-07-13T15:50:19;3.25;;;2.83;;
64791;SDS011;51226;47.504;19.074;2023-07-13T15:53:25;3.53;;;3.22;;
64791;SDS011;51226;47.504;19.074;2023-07-13T15:56:34;3.20;;;2.90;;
64791;SDS011;51226;47.504;19.074;2023-07-13T15:59:39;3.53;;;2.87;;
64791;SDS011;51226;47.504;19.074;2023-07-13T16:02:42;4.05;;;2.80;;
64791;SDS011;51226;47.504;19.074;2023-07-13T16:05:46;3.83;;;3.20;;
64791;SDS011;51226;47.504;19.074;2023-07-13T16:08:50;2.80;;;2.60;;
64791;SDS011;51226;47.504;19.074;2023-07-13T16:11:54;4.40;;;3.25;;
64791;SDS011;51226;47.504;19.074;2023-07-13T16:14:59;4.05;;;2.90;;
64791;SDS011;51226;47.504;19.074;2023-07-13T16:18:07;3.80;;;2.97;;
64791;SDS011;51226;47.504;19.074;2023-07-13T16:21:13;4.18;;;2.97;;
64791;SDS011;51226;47.504;19.074;2023-07-13T16:24:19;3.47;;;3.17;;
64791;SDS011;51226;47.504;19.074;2023-07-13T16:27:24;3.58;;;3.20;;
64791;SDS011;51226;47.504;19.074;2023-07-13T16:30:28;3.00;;;2.70;;
64791;SDS011;51226;47.504;19.074;2023-07-13T16:33:33;5.37;;;3.03;;
64791;SDS011;51226;47.504;19.074;2023-07-13T16:36:36;3.40;;;3.03;;
64791;SDS011;51226;47.504;19.074;2023-07-13T16:39:41;3.28;;;2.97;;
64791;SDS011;51226;47.504;19.074;2023-07-13T16:42:51;3.42;;;3.12;;
64791;SDS011;51226;47.504;19.074;2023-07-13T16:45:56;3.85;;;3.55;;
64791;SDS011;51226;47.504;19.074;2023-07-13T16:49:04;3.95;;;3.47;;
64791;SDS011;51226;47.504;19.074;2023-07-13T16:52:22;4.28;;;3.42;;
64791;SDS011;51226;47.504;19.074;2023-07-13T16:55:26;7.05;;;3.10;;
64791;SDS011;51226;47.504;19.074;2023-07-13T16:58:30;3.87;;;2.95;;
64791;SDS011;51226;47.504;19.074;2023-07-13T17:01:35;3.60;;;3.25;;
64791;SDS011;51226;47.504;19.074;2023-07-13T17:04:38;4.30;;;2.75;;
64791;SDS011;51226;47.504;19.074;2023-07-13T17:07:44;3.58;;;2.80;;
64791;SDS011;51226;47.504;19.074;2023-07-13T17:10:48;3.00;;;2.70;;
64791;SDS011;51226;47.504;19.074;2023-07-13T17:13:52;4.18;;;3.00;;
64791;SDS011;51226;47.504;19.074;2023-07-13T17:16:56;3.58;;;3.17;;
64791;SDS011;51226;47.504;19.074;2023-07-13T17:19:59;10.75;;;8.45;;
64791;SDS011;51226;47.504;19.074;2023-07-13T17:23:12;16.12;;;13.95;;
64791;SDS011;51226;47.504;19.074;2023-07-13T17:26:18;6.55;;;5.18;;
64791;SDS011;51226;47.504;19.074;2023-07-13T17:29:20;3.10;;;2.90;;
64791;SDS011;51226;47.504;19.074;2023-07-13T17:32:24;3.97;;;3.08;;
64791;SDS011;51226;47.504;19.074;2023-07-13T17:35:28;3.80;;;3.50;;
64791;SDS011;51226;47.504;19.074;2023-07-13T17:38:37;11.40;;;8.52;;
64791;SDS011;51226;47.504;19.074;2023-07-13T17:41:42;7.10;;;5.65;;
64791;SDS011;51226;47.504;19.074;2023-07-13T17:44:47;4.75;;;3.50;;
64791;SDS011;51226;47.504;19.074;2023-07-13T17:47:51;7.28;;;3.25;;
64791;SDS011;51226;47.504;19.074;2023-07-13T17:50:55;3.55;;;3.20;;
64791;SDS011;51226;47.504;19.074;2023-07-13T17:54:01;3.12;;;2.92;;
64791;SDS011;51226;47.504;19.074;2023-07-13T17:57:05;3.67;;;3.37;;
64791;SDS011;51226;47.504;19.074;2023-07-13T18:00:08;3.45;;;3.00;;
64791;SDS011;51226;47.504;19.074;2023-07-13T18:03:29;5.43;;;3.25;;
64791;SDS011;51226;47.504;19.074;2023-07-13T18:06:38;4.03;;;3.22;;
64791;SDS011;51226;47.504;19.074;2023-07-13T18:09:45;3.25;;;2.90;;
64791;SDS011;51226;47.504;19.074;2023-07-13T18:12:52;4.53;;;3.08;;
64791;SDS011;51226;47.504;19.074;2023-07-13T18:15:56;3.60;;;3.28;;
64791;SDS011;51226;47.504;19.074;2023-07-13T18:19:02;3.53;;;3.22;;
64791;SDS011;51226;47.504;19.074;2023-07-13T18:22:11;3.37;;;3.08;;
64791;SDS011;51226;47.504;19.074;2023-07-13T18:25:19;5.68;;;2.80;;
64791;SDS011;51226;47.504;19.074;2023-07-13T18:28:27;2.58;;;2.20;;
64791;SDS011;51226;47.504;19.074;2023-07-13T18:31:30;3.45;;;2.47;;
64791;SDS011;51226;47.504;19.074;2023-07-13T18:34:38;3.97;;;2.85;;
64791;SDS011;51226;47.504;19.074;2023-07-13T18:37:45;5.37;;;2.72;;
64791;SDS011;51226;47.504;19.074;2023-07-13T18:40:48;2.72;;;2.53;;
64791;SDS011;51226;47.504;19.074;2023-07-13T18:43:51;3.85;;;3.45;;
64791;SDS011;51226;47.504;19.074;2023-07-13T18:46:55;9.50;;;3.35;;
64791;SDS011;51226;47.504;19.074;2023-07-13T18:49:58;6.00;;;4.47;;
64791;SDS011;51226;47.504;19.074;2023-07-13T18:53:01;4.00;;;3.37;;
64791;SDS011;51226;47.504;19.074;2023-07-13T18:56:05;3.00;;;2.60;;
64791;SDS011;51226;47.504;19.074;2023-07-13T18:59:09;4.05;;;3.75;;
64791;SDS011;51226;47.504;19.074;2023-07-13T19:02:13;3.78;;;3.45;;
64791;SDS011;51226;47.504;19.074;2023-07-13T19:05:22;6.45;;;5.60;;